Time;durP1;ratioP1;P1;durP2;ratioP2;P2;SDS_P1;SDS_P2;PMS_P1;PMS_P2;Temp;Humidity;BMP_temperature;BMP_pressure;BME280_temperature;BME280_humidity;BME280_pressure;Samples;Min_cycle;Max_cycle;Signal;HPM_P1;HPM_P2
2021/05/11 00:00:29;;;;;;;;;;;;;;;13.35;52.69;98740.55;2260139;79;20230;-77
2021/05/11 00:03:41;;;;;;;;;;;;;;;13.26;52.98;98739.41;2308916;76;20203;-77
2021/05/11 00:06:58;;;;;;;;;;;;;;;13.18;53.41;98736.49;2263109;79;20511;-77
2021/05/11 00:10:09;;;;;;;;;;;;;;;13.10;53.39;98744.11;2308886;76;20116;-78
2021/05/11 00:13:20;;;;;;;;;;;;;;;13.04;53.54;98740.61;2260124;79;20222;-77
2021/05/11 00:16:33;;;;;;;;;;;;;;;12.97;53.90;98739.75;2260085;79;20478;-75
2021/05/11 00:19:44;;;;;;;;;;;;;;;12.93;54.07;98736.97;2263255;79;20222;-77
2021/05/11 00:23:02;;;;;;;;;;;;;;;12.89;54.12;98739.94;2263132;79;20248;-75
2021/05/11 00:26:13;;;;;;;;;;;;;;;12.85;54.48;98740.62;2260108;79;20222;-75
2021/05/11 00:29:30;;;;;;;;;;;;;;;12.82;54.46;98742.98;2263211;79;20263;-77
2021/05/11 00:32:42;;;;;;;;;;;;;;;12.80;54.76;98738.32;2260124;79;20238;-77
2021/05/11 00:35:52;;;;;;;;;;;;;;;12.79;54.66;98736.63;2263246;79;20214;-77
2021/05/11 00:39:04;;;;;;;;;;;;;;;12.76;54.65;98739.48;2260113;79;20214;-75
2021/05/11 00:42:21;;;;;;;;;;;;;;;12.71;54.84;98738.96;2263661;79;20259;-77
2021/05/11 00:45:37;;;;;;;;;;;;;;;12.68;54.89;98740.98;2263082;79;20145;-77
2021/05/11 00:48:48;;;;;;;;;;;;;;;12.63;55.44;98736.05;2263230;79;20219;-76
2021/05/11 00:52:00;;;;;;;;;;;;;;;12.59;55.69;98733.27;2263384;79;20210;-75
2021/05/11 00:55:11;;;;;;;;;;;;;;;12.55;55.56;98730.48;2263246;79;20506;-77
2021/05/11 00:58:22;;;;;;;;;;;;;;;12.53;56.12;98727.11;2263222;79;20238;-77
2021/05/11 01:01:33;;;;;;;;;;;;;;;12.51;55.70;98729.84;2260255;79;20215;-77
2021/05/11 01:04:44;;;;;;;;;;;;;;;12.49;55.83;98735.70;2260119;79;20214;-77
2021/05/11 01:07:55;;;;;;;;;;;;;;;12.45;56.32;98735.06;2260211;79;20227;-77
2021/05/11 01:11:12;;;;;;;;;;;;;;;12.43;56.28;98735.66;2263132;79;20570;-77
2021/05/11 01:14:25;;;;;;;;;;;;;;;12.42;56.44;98732.66;2260129;79;20254;-77
2021/05/11 01:17:49;;;;;;;;;;;;;;;12.42;56.69;98731.34;2263112;79;20500;-76
2021/05/11 01:21:15;;;;;;;;;;;;;;;12.39;58.28;98721.52;2263148;79;20504;-77
2021/05/11 01:24:16;;;;;;;;;;;;;;;12.37;56.49;98720.31;2263259;79;20123;-77
2021/05/11 01:27:41;;;;;;;;;;;;;;;12.36;56.61;98721.26;2260111;79;20215;-77
2021/05/11 01:31:12;;;;;;;;;;;;;;;12.34;56.76;98727.56;2260168;79;20490;-77
2021/05/11 01:48:56;;;;;;;;;;;;;;;12.23;57.39;98702.86;2263247;79;20465;-77
2021/05/11 01:52:24;;;;;;;;;;;;;;;12.22;57.58;98706.43;2260180;79;20223;-78
2021/05/11 02:24:18;;;;;;;;;;;;;;;11.95;58.18;98689.47;2260132;79;20490;-77
2021/05/11 02:27:31;;;;;;;;;;;;;;;11.91;58.45;98692.77;2260135;79;20222;-77
2021/05/11 02:30:49;;;;;;;;;;;;;;;11.89;58.69;98692.49;2263131;79;20508;-77
2021/05/11 02:34:00;;;;;;;;;;;;;;;11.85;58.99;98685.76;2260137;79;20249;-77
2021/05/11 02:37:11;;;;;;;;;;;;;;;11.82;58.84;98682.86;2260112;79;20474;-77
2021/05/11 02:40:23;;;;;;;;;;;;;;;11.80;58.89;98687.39;2260120;79;20230;-77
2021/05/11 02:43:37;;;;;;;;;;;;;;;11.75;59.12;98681.59;2308865;76;20125;-77
2021/05/11 02:46:47;;;;;;;;;;;;;;;11.70;59.15;98683.23;2260069;79;20481;-77
2021/05/11 02:50:04;;;;;;;;;;;;;;;11.67;59.42;98683.45;2260238;79;20218;-77
2021/05/11 02:53:18;;;;;;;;;;;;;;;11.64;59.49;98681.48;2263733;79;20236;-77
2021/05/11 02:56:29;;;;;;;;;;;;;;;11.60;59.50;98690.06;2260091;79;20242;-77
2021/05/11 02:59:41;;;;;;;;;;;;;;;11.56;59.66;98684.16;2308922;76;20216;-77
2021/05/11 03:02:51;;;;;;;;;;;;;;;11.52;60.25;98685.78;2309014;76;20120;-77
2021/05/11 03:06:02;;;;;;;;;;;;;;;11.50;60.18;98685.89;2260098;79;20238;-77
2021/05/11 03:09:13;;;;;;;;;;;;;;;11.49;60.21;98688.14;2260113;79;20238;-77
2021/05/11 03:12:26;;;;;;;;;;;;;;;11.46;60.04;98687.03;2260141;79;20218;-77
2021/05/11 03:15:37;;;;;;;;;;;;;;;11.43;60.38;98684.16;2260091;79;20222;-77
2021/05/11 03:18:49;;;;;;;;;;;;;;;11.43;60.47;98686.80;2260107;79;20218;-77
2021/05/11 03:22:00;;;;;;;;;;;;;;;11.48;60.44;98689.55;2260266;79;20219;-77
2021/05/11 03:25:11;;;;;;;;;;;;;;;11.52;60.53;98680.53;2260153;79;20222;-77
2021/05/11 03:28:22;;;;;;;;;;;;;;;11.58;60.37;98677.52;2309023;76;20124;-77
2021/05/11 03:31:39;;;;;;;;;;;;;;;11.67;60.30;98679.50;2263231;79;20511;-77
2021/05/11 03:34:50;;;;;;;;;;;;;;;11.78;60.31;98680.94;2263250;79;20482;-77
2021/05/11 03:38:03;;;;;;;;;;;;;;;11.90;60.17;98672.67;2260083;79;20234;-77
2021/05/11 03:41:16;;;;;;;;;;;;;;;12.03;60.10;98668.76;2260310;79;20214;-77
2021/05/11 03:44:29;;;;;;;;;;;;;;;12.17;60.24;98668.26;2263416;79;20214;-77
2021/05/11 03:47:44;;;;;;;;;;;;;;;12.31;59.83;98669.44;2260083;79;20218;-77
2021/05/11 03:51:05;;;;;;;;;;;;;;;12.49;59.75;98667.31;2263146;79;20507;-77
2021/05/11 03:54:23;;;;;;;;;;;;;;;12.65;59.41;98670.50;2263066;79;20129;-77
2021/05/11 03:57:35;;;;;;;;;;;;;;;12.83;59.18;98658.31;2260131;79;20218;-76
2021/05/11 04:00:53;;;;;;;;;;;;;;;13.02;59.16;98655.16;2263082;79;20240;-77
2021/05/11 04:04:10;;;;;;;;;;;;;;;13.20;58.57;98656.88;2263250;79;20276;-75
2021/05/11 04:07:28;;;;;;;;;;;;;;;13.39;58.51;98655.54;2308699;76;20235;-77
2021/05/11 04:10:42;;;;;;;;;;;;;;;13.59;58.14;98655.34;2260121;79;20485;-77
2021/05/11 04:14:10;;;;;;;;;;;;;;;13.78;57.79;98660.91;2260130;79;20235;-77
2021/05/11 04:17:17;;;;;;;;;;;;;;;13.96;57.38;98649.89;2263091;79;20499;-76
2021/05/11 04:20:34;;;;;;;;;;;;;;;14.18;57.11;98654.34;2263109;79;20264;-76
2021/05/11 04:23:46;;;;;;;;;;;;;;;14.37;56.67;98659.82;2260240;79;20218;-74
2021/05/11 04:27:04;;;;;;;;;;;;;;;14.58;56.40;98651.14;2308698;76;20166;-76
2021/05/11 04:30:15;;;;;;;;;;;;;;;14.76;56.16;98655.46;2260163;79;20218;-74
2021/05/11 04:33:27;;;;;;;;;;;;;;;14.96;55.58;98649.88;2260098;79;20218;-74
2021/05/11 04:36:38;;;;;;;;;;;;;;;15.15;55.59;98651.01;2260088;79;20485;-74
2021/05/11 04:39:55;;;;;;;;;;;;;;;15.29;55.03;98649.88;2263099;79;20495;-74
2021/05/11 04:43:07;;;;;;;;;;;;;;;15.36;54.87;98651.86;2263229;79;20482;-76
2021/05/11 04:46:25;;;;;;;;;;;;;;;15.35;54.62;98642.74;2260068;79;20242;-75
2021/05/11 04:49:37;;;;;;;;;;;;;;;15.45;54.55;98642.81;2260129;79;20545;-74
2021/05/11 04:52:54;;;;;;;;;;;;;;;15.58;53.89;98643.45;2263162;79;20507;-74
2021/05/11 04:56:05;;;;;;;;;;;;;;;15.76;53.97;98651.64;2308956;76;20463;-74
2021/05/11 04:59:23;;;;;;;;;;;;;;;15.96;53.35;98646.45;2263260;79;20516;-74
2021/05/11 05:02:40;;;;;;;;;;;;;;;16.20;53.39;98642.17;2308856;76;20148;-73
2021/05/11 05:05:52;;;;;;;;;;;;;;;16.43;52.69;98641.01;2263252;79;20209;-73
2021/05/11 05:09:10;;;;;;;;;;;;;;;16.65;52.17;98633.81;2263155;79;20593;-74
2021/05/11 05:12:22;;;;;;;;;;;;;;;16.90;52.12;98635.10;2260132;79;20234;-73
2021/05/11 05:15:32;;;;;;;;;;;;;;;17.08;51.04;98633.94;2260171;79;20254;-74
2021/05/11 05:18:42;;;;;;;;;;;;;;;17.20;51.26;98632.47;2260065;79;20497;-74
2021/05/11 05:22:00;;;;;;;;;;;;;;;17.39;51.13;98632.93;2263160;79;20615;-73
2021/05/11 05:25:15;;;;;;;;;;;;;;;17.62;50.88;98626.81;2260119;79;20477;-74
2021/05/11 05:28:34;;;;;;;;;;;;;;;17.87;49.88;98630.66;2266071;79;20153;-73
2021/05/11 05:31:51;;;;;;;;;;;;;;;18.02;49.14;98619.11;2266106;79;20443;-73
2021/05/11 05:35:01;;;;;;;;;;;;;;;18.18;49.97;98621.95;2260177;79;20493;-74
2021/05/11 05:38:12;;;;;;;;;;;;;;;18.43;49.70;98623.59;2260274;79;20128;-73
2021/05/11 05:41:24;;;;;;;;;;;;;;;18.67;49.17;98622.99;2260277;79;20147;-73
2021/05/11 05:44:36;;;;;;;;;;;;;;;18.89;48.61;98621.41;2263238;79;20222;-74
2021/05/11 05:47:50;;;;;;;;;;;;;;;19.11;47.98;98624.95;2260246;79;20131;-73
2021/05/11 05:51:02;;;;;;;;;;;;;;;19.26;47.68;98617.25;2260165;79;20219;-73
2021/05/11 05:54:17;;;;;;;;;;;;;;;19.39;47.37;98622.16;2266113;79;20443;-73
2021/05/11 05:57:29;;;;;;;;;;;;;;;19.47;46.62;98617.42;2260081;79;20474;-73
2021/05/11 06:00:40;;;;;;;;;;;;;;;19.59;45.73;98621.47;2308893;76;20128;-73
2021/05/11 06:03:58;;;;;;;;;;;;;;;19.77;46.61;98617.91;2263146;79;20232;-73
2021/05/11 06:07:08;;;;;;;;;;;;;;;20.06;47.04;98618.44;2260149;79;20119;-74
2021/05/11 06:10:19;;;;;;;;;;;;;;;20.31;45.65;98603.88;2263241;79;20123;-73
2021/05/11 06:13:37;;;;;;;;;;;;;;;20.43;45.43;98610.59;2260095;79;20219;-73
2021/05/11 06:20:18;;;;;;;;;;;;;;;20.82;44.07;98586.56;2260115;79;20218;-73
2021/05/11 06:23:29;;;;;;;;;;;;;;;20.99;44.56;98582.56;2263390;79;20218;-73
2021/05/11 06:26:40;;;;;;;;;;;;;;;21.10;43.85;98581.75;2260237;79;20132;-74
2021/05/11 06:29:56;;;;;;;;;;;;;;;21.12;43.62;98580.24;2263391;79;20210;-73
2021/05/11 06:33:06;;;;;;;;;;;;;;;21.19;43.58;98586.58;2263234;79;20226;-73
2021/05/11 06:36:17;;;;;;;;;;;;;;;21.27;43.38;98581.72;2263214;79;20226;-73
2021/05/11 06:39:35;;;;;;;;;;;;;;;21.37;43.44;98575.70;2263137;79;20538;-73
2021/05/11 06:42:50;;;;;;;;;;;;;;;21.52;42.70;98575.05;2263240;79;20238;-73
2021/05/11 06:46:56;;;;;;;;;;;;;;;21.76;43.90;98579.48;2263330;79;20218;-73
2021/05/11 06:50:10;;;;;;;;;;;;;;;22.16;43.05;98575.00;2260284;79;20216;-73
2021/05/11 06:53:15;;;;;;;;;;;;;;;22.37;41.92;98579.78;2263249;79;20218;-72
2021/05/11 06:56:26;;;;;;;;;;;;;;;22.57;42.54;98577.97;2308954;76;20151;-73
2021/05/11 06:59:38;;;;;;;;;;;;;;;22.79;41.53;98577.68;2260132;79;20218;-73
2021/05/11 07:02:51;;;;;;;;;;;;;;;22.79;41.10;98581.69;2260128;79;20124;-72
2021/05/11 07:06:11;;;;;;;;;;;;;;;22.90;41.42;98581.28;2263578;79;20232;-73
2021/05/11 07:09:31;;;;;;;;;;;;;;;22.96;41.28;98576.54;2260127;79;20219;-73
2021/05/11 07:16:05;;;;;;;;;;;;;;;23.27;39.98;98569.45;2260237;79;20135;-73
2021/05/11 07:19:17;;;;;;;;;;;;;;;23.38;40.28;98572.20;2263217;79;20226;-73
2021/05/11 07:22:27;;;;;;;;;;;;;;;23.47;39.36;98567.09;2260160;79;20222;-73
2021/05/11 07:25:43;;;;;;;;;;;;;;;23.65;38.32;98568.91;2260151;79;20251;-73
2021/05/11 07:29:21;;;;;;;;;;;;;;;23.80;39.11;98568.89;2260153;79;20214;-73
2021/05/11 07:32:24;;;;;;;;;;;;;;;23.94;38.10;98557.07;2260129;79;20226;-73
2021/05/11 07:35:39;;;;;;;;;;;;;;;24.04;38.22;98558.95;2308916;76;20144;-73
2021/05/11 07:38:49;;;;;;;;;;;;;;;24.22;38.70;98557.19;2308944;76;20236;-73
2021/05/11 07:42:05;;;;;;;;;;;;;;;24.32;38.29;98560.42;2263159;79;20538;-73
2021/05/11 07:45:27;;;;;;;;;;;;;;;24.47;38.42;98559.55;2260133;79;20222;-73
2021/05/11 08:16:45;;;;;;;;;;;;;;;25.20;35.20;98547.36;2260115;79;20235;-74
2021/05/11 08:20:06;;;;;;;;;;;;;;;25.26;35.46;98549.26;2260138;79;20215;-74
2021/05/11 08:27:26;;;;;;;;;;;;;;;25.38;34.94;98546.37;2263132;79;20288;-74
2021/05/11 08:30:10;;;;;;;;;;;;;;;25.51;34.90;98548.83;2263245;79;20246;-74
2021/05/11 08:33:21;;;;;;;;;;;;;;;25.73;34.89;98544.20;2260128;79;20218;-74
2021/05/11 08:36:32;;;;;;;;;;;;;;;25.89;35.59;98548.44;2260113;79;20218;-74
2021/05/11 08:39:43;;;;;;;;;;;;;;;25.94;34.73;98546.78;2263397;79;20214;-74
2021/05/11 08:42:54;;;;;;;;;;;;;;;26.13;35.95;98544.41;2260135;79;20229;-74
2021/05/11 08:46:03;;;;;;;;;;;;;;;26.41;35.47;98546.17;2263232;79;20265;-74
2021/05/11 08:49:20;;;;;;;;;;;;;;;26.56;35.38;98540.62;2263116;79;20244;-74
2021/05/11 08:52:44;;;;;;;;;;;;;;;26.69;35.80;98532.59;2260125;79;20234;-74
2021/05/11 09:06:24;;;;;;;;;;;;;;;27.49;34.57;98528.55;2308857;76;20220;-74
2021/05/11 09:09:48;;;;;;;;;;;;;;;27.62;32.40;98533.09;2260193;79;20237;-74
2021/05/11 09:23:31;;;;;;;;;;;;;;;27.83;33.73;98536.57;2263079;79;20272;-74
2021/05/11 09:23:36;;;;;;;;;;;;;;;27.79;32.78;98532.64;2263236;79;20485;-74
2021/05/11 09:26:49;;;;;;;;;;;;;;;27.93;33.10;98535.59;2260127;79;20473;-74
2021/05/11 09:30:09;;;;;;;;;;;;;;;28.06;32.03;98518.57;2308827;76;20471;-74
2021/05/11 09:33:23;;;;;;;;;;;;;;;27.92;32.15;98535.81;2263246;79;20470;-74
2021/05/11 09:57:42;;;;;;;;;;;;;;;28.54;31.86;98522.66;2263373;79;20219;-74
2021/05/11 10:01:40;;;;;;;;;;;;;;;28.67;31.64;98502.89;2263252;79;20481;-74
2021/05/11 10:12:22;;;;;;;;;;;;;;;28.78;30.39;98499.48;2260157;79;20501;-74
2021/05/11 10:46:56;;;;;;;;;;;;;;;29.83;28.89;98491.11;2260093;79;20211;-74
2021/05/11 10:50:06;;;;;;;;;;;;;;;29.90;28.88;98496.45;2309075;76;20148;-74
2021/05/11 10:53:17;;;;;;;;;;;;;;;29.87;27.47;98486.91;2260122;79;20241;-74
2021/05/11 10:56:36;;;;;;;;;;;;;;;29.97;28.87;98478.77;2263076;79;20496;-74
2021/05/11 10:59:59;;;;;;;;;;;;;;;30.17;29.40;98469.88;2263262;79;20481;-74
2021/05/11 11:03:16;;;;;;;;;;;;;;;30.43;28.38;98472.44;2260004;79;20233;-74
2021/05/11 11:06:27;;;;;;;;;;;;;;;30.54;28.74;98461.67;2260138;79;20223;-74
2021/05/11 11:09:38;;;;;;;;;;;;;;;30.69;28.46;98467.16;2263258;79;20230;-74
2021/05/11 11:12:48;;;;;;;;;;;;;;;30.68;27.11;98459.55;2260124;79;20478;-74
2021/05/11 11:15:59;;;;;;;;;;;;;;;30.83;28.19;98464.53;2263230;79;20217;-74
2021/05/11 11:19:17;;;;;;;;;;;;;;;30.91;28.36;98450.62;2263765;79;20236;-74
2021/05/11 11:25:58;;;;;;;;;;;;;;;31.38;28.56;98448.45;2260108;79;20230;-74
2021/05/11 11:29:08;;;;;;;;;;;;;;;31.32;28.10;98454.83;2260278;79;20219;-74
2021/05/11 11:32:25;;;;;;;;;;;;;;;31.24;28.51;98445.17;2263392;79;20236;-74
2021/05/11 11:35:35;;;;;;;;;;;;;;;31.32;28.53;98448.06;2260111;79;20218;-74
2021/05/11 11:38:45;;;;;;;;;;;;;;;31.57;29.09;98447.79;2263290;79;20490;-75
2021/05/11 11:41:55;;;;;;;;;;;;;;;31.68;26.57;98450.70;2260140;79;20218;-74
2021/05/11 11:45:06;;;;;;;;;;;;;;;31.58;27.73;98441.31;2260121;79;20478;-74
2021/05/11 11:48:20;;;;;;;;;;;;;;;31.73;27.48;98446.20;2260185;79;20226;-74
2021/05/11 11:51:36;;;;;;;;;;;;;;;31.66;27.11;98443.36;2266113;79;20169;-74
2021/05/11 11:54:58;;;;;;;;;;;;;;;31.61;27.04;98441.38;2260178;79;20470;-74
2021/05/11 11:57:59;;;;;;;;;;;;;;;31.75;27.78;98444.09;2260100;79;20222;-74
2021/05/11 12:01:10;;;;;;;;;;;;;;;31.95;27.50;98437.41;2263273;79;20279;-74
2021/05/11 12:04:20;;;;;;;;;;;;;;;32.06;27.32;98432.47;2260140;79;20498;-75
2021/05/11 12:07:31;;;;;;;;;;;;;;;32.23;27.94;98434.44;2260087;79;20219;-74
2021/05/11 12:10:48;;;;;;;;;;;;;;;32.32;26.36;98422.09;2263860;79;20141;-74
2021/05/11 12:13:59;;;;;;;;;;;;;;;32.38;27.14;98414.87;2260216;79;20218;-74
2021/05/11 12:17:10;;;;;;;;;;;;;;;32.46;26.97;98414.47;2260063;79;20278;-74
2021/05/11 12:20:24;;;;;;;;;;;;;;;32.61;26.35;98405.22;2260118;79;20482;-75
2021/05/11 12:23:34;;;;;;;;;;;;;;;32.73;27.01;98411.10;2260136;79;20223;-74
2021/05/11 12:26:46;;;;;;;;;;;;;;;32.75;27.19;98403.00;2260106;79;20234;-75
2021/05/11 12:29:58;;;;;;;;;;;;;;;32.80;25.63;98394.94;2260118;79;20215;-75
2021/05/11 12:33:12;;;;;;;;;;;;;;;32.62;26.46;98393.27;2308765;76;20124;-75
2021/05/11 12:36:24;;;;;;;;;;;;;;;32.49;26.78;98397.69;2260091;79;20490;-74
2021/05/11 12:39:42;;;;;;;;;;;;;;;32.56;25.46;98388.03;2260101;79;20211;-75
2021/05/11 12:42:51;;;;;;;;;;;;;;;32.60;25.45;98391.91;2263274;79;20466;-75
2021/05/11 12:46:01;;;;;;;;;;;;;;;32.67;25.72;98393.91;2263199;79;20218;-75
2021/05/11 12:49:16;;;;;;;;;;;;;;;32.83;27.01;98392.79;2260113;79;20482;-75
2021/05/11 12:52:26;;;;;;;;;;;;;;;33.05;26.08;98389.58;2260098;79;20486;-74
2021/05/11 12:55:45;;;;;;;;;;;;;;;32.96;25.48;98382.95;2260221;79;20235;-75
2021/05/11 12:58:59;;;;;;;;;;;;;;;32.81;25.87;98380.82;2260160;79;20478;-75
2021/05/11 13:02:10;;;;;;;;;;;;;;;32.97;26.35;98373.70;2308994;76;20215;-75
2021/05/11 13:09:22;;;;;;;;;;;;;;;32.98;25.41;98376.17;2260106;79;20218;-75
2021/05/11 13:15:39;;;;;;;;;;;;;;;32.79;24.96;98363.42;2260248;79;20210;-75
2021/05/11 13:22:40;;;;;;;;;;;;;;;32.99;25.17;98362.08;2263224;79;20491;-75
2021/05/11 13:25:51;;;;;;;;;;;;;;;33.03;23.84;98352.36;2263233;79;20493;-75
2021/05/11 13:29:05;;;;;;;;;;;;;;;32.87;24.57;98348.63;2260143;79;20234;-75
2021/05/11 13:32:22;;;;;;;;;;;;;;;32.86;24.69;98349.68;2263771;79;20232;-75
2021/05/11 13:35:33;;;;;;;;;;;;;;;32.83;23.17;98337.13;2260128;79;20210;-75
2021/05/11 13:38:43;;;;;;;;;;;;;;;32.77;24.52;98330.80;2260098;79;20490;-75
2021/05/11 13:41:54;;;;;;;;;;;;;;;32.86;23.75;98331.19;2260163;79;20214;-75
2021/05/11 13:45:10;;;;;;;;;;;;;;;32.84;23.82;98328.73;2263125;79;20303;-75
2021/05/11 13:48:24;;;;;;;;;;;;;;;32.98;23.93;98324.57;2260115;79;20210;-75
2021/05/11 13:51:33;;;;;;;;;;;;;;;33.05;23.46;98315.44;2260138;79;20230;-75
2021/05/11 13:54:47;;;;;;;;;;;;;;;33.07;24.11;98321.42;2308851;76;20220;-75
2021/05/11 14:04:56;;;;;;;;;;;;;;;33.03;23.54;98310.26;2260119;79;20217;-75
2021/05/11 14:08:07;;;;;;;;;;;;;;;32.99;23.08;98304.49;2260108;79;20223;-75
2021/05/11 14:11:18;;;;;;;;;;;;;;;32.94;23.46;98300.89;2260097;79;20493;-75
2021/05/11 14:14:35;;;;;;;;;;;;;;;32.85;23.33;98293.73;2263117;79;20519;-75
2021/05/11 14:17:44;;;;;;;;;;;;;;;32.80;24.03;98297.20;2260134;79;20218;-75
2021/05/11 14:20:55;;;;;;;;;;;;;;;32.84;23.89;98292.63;2260123;79;20501;-75
2021/05/11 14:24:06;;;;;;;;;;;;;;;32.87;23.16;98290.75;2263258;79;20231;-75
2021/05/11 14:27:16;;;;;;;;;;;;;;;32.68;23.98;98285.63;2263237;79;20470;-75
2021/05/11 14:30:27;;;;;;;;;;;;;;;32.69;23.50;98289.99;2260096;79;20234;-75
2021/05/11 14:33:38;;;;;;;;;;;;;;;32.62;23.23;98279.82;2263184;79;20227;-75
2021/05/11 14:36:49;;;;;;;;;;;;;;;32.44;23.35;98275.48;2308834;76;20136;-75
2021/05/11 14:40:06;;;;;;;;;;;;;;;32.37;23.75;98279.75;2263114;79;20511;-75
2021/05/11 14:43:22;;;;;;;;;;;;;;;32.40;23.54;98270.30;2309332;76;20176;-75
2021/05/11 14:46:53;;;;;;;;;;;;;;;32.52;23.12;98270.19;2398194;74;20130;-75
2021/05/11 14:50:03;;;;;;;;;;;;;;;32.63;23.57;98264.64;2260146;79;20223;-75
2021/05/11 14:53:19;;;;;;;;;;;;;;;32.54;22.49;98258.02;2263184;79;20272;-75
2021/05/11 14:56:30;;;;;;;;;;;;;;;32.49;22.17;98254.41;2260104;79;20218;-75
2021/05/11 14:59:47;;;;;;;;;;;;;;;32.38;22.56;98244.74;2263629;79;20236;-75
2021/05/11 15:03:19;;;;;;;;;;;;;;;32.44;22.71;98234.78;2386158;74;20133;-75
2021/05/11 15:06:29;;;;;;;;;;;;;;;32.79;22.48;98239.89;2260093;79;20477;-74
2021/05/11 15:09:40;;;;;;;;;;;;;;;33.55;21.56;98237.45;2260115;79;20219;-74
2021/05/11 15:12:51;;;;;;;;;;;;;;;35.05;21.11;98233.28;2260125;79;20482;-74
2021/05/11 15:16:06;;;;;;;;;;;;;;;36.66;19.91;98229.47;2263236;79;20222;-74
2021/05/11 15:19:15;;;;;;;;;;;;;;;38.35;18.67;98223.41;2260098;79;20490;-74
2021/05/11 15:22:27;;;;;;;;;;;;;;;39.43;17.87;98213.00;2260260;79;20234;-74
2021/05/11 15:25:45;;;;;;;;;;;;;;;40.24;16.78;98212.73;2263549;79;20271;-74
2021/05/11 15:28:56;;;;;;;;;;;;;;;40.78;16.63;98224.05;2263252;79;20234;-74
2021/05/11 15:32:07;;;;;;;;;;;;;;;41.37;14.70;98214.52;2260137;79;20482;-74
2021/05/11 15:35:17;;;;;;;;;;;;;;;41.91;14.79;98211.03;2308923;76;20212;-74
2021/05/11 15:38:29;;;;;;;;;;;;;;;42.27;14.55;98214.23;2260165;79;20222;-74
2021/05/11 15:41:41;;;;;;;;;;;;;;;42.65;14.00;98208.78;2260254;79;20218;-74
2021/05/11 15:44:58;;;;;;;;;;;;;;;43.21;14.13;98202.93;2263262;79;20535;-74
2021/05/11 15:48:08;;;;;;;;;;;;;;;43.80;13.46;98202.96;2260164;79;20214;-74
2021/05/11 15:51:25;;;;;;;;;;;;;;;44.00;13.13;98204.23;2263636;79;20257;-74
2021/05/11 15:54:37;;;;;;;;;;;;;;;44.13;12.65;98197.67;2260237;79;20218;-74
2021/05/11 15:57:54;;;;;;;;;;;;;;;44.26;13.04;98192.30;2263104;79;20244;-74
2021/05/11 16:01:06;;;;;;;;;;;;;;;44.70;13.21;98201.19;2277505;77;20152;-74
2021/05/11 16:04:16;;;;;;;;;;;;;;;45.11;13.04;98199.59;2260147;79;20230;-74
2021/05/11 16:07:27;;;;;;;;;;;;;;;45.27;12.29;98200.38;2260109;79;20478;-74
2021/05/11 16:10:39;;;;;;;;;;;;;;;45.40;12.61;98200.64;2263233;79;20218;-74
2021/05/11 16:13:56;;;;;;;;;;;;;;;45.58;12.03;98194.99;2263699;79;20236;-75
2021/05/11 16:17:07;;;;;;;;;;;;;;;45.46;11.73;98181.34;2263220;79;20222;-75
2021/05/11 16:20:17;;;;;;;;;;;;;;;45.46;11.71;98190.20;2260121;79;20482;-74
2021/05/11 16:23:28;;;;;;;;;;;;;;;45.55;10.40;98190.94;2260300;79;20222;-74
2021/05/11 16:26:39;;;;;;;;;;;;;;;45.55;11.51;98188.76;2260107;79;20410;-74
2021/05/11 16:29:50;;;;;;;;;;;;;;;45.69;11.69;98185.66;2263254;79;20222;-74
2021/05/11 16:33:03;;;;;;;;;;;;;;;45.66;11.56;98194.90;2260132;79;20494;-74
2021/05/11 16:36:33;;;;;;;;;;;;;;;45.32;11.08;98176.66;2374562;74;20138;-75
2021/05/11 16:39:44;;;;;;;;;;;;;;;45.12;10.88;98184.63;2260132;79;20219;-75
2021/05/11 16:42:56;;;;;;;;;;;;;;;45.17;11.60;98180.84;2260269;79;20215;-74
2021/05/11 16:46:07;;;;;;;;;;;;;;;45.24;11.33;98186.63;2260153;79;20214;-75
2021/05/11 16:49:18;;;;;;;;;;;;;;;45.05;11.50;98188.52;2263242;79;20489;-74
2021/05/11 16:52:28;;;;;;;;;;;;;;;44.87;11.61;98186.99;2260138;79;20222;-75
2021/05/11 16:55:39;;;;;;;;;;;;;;;44.80;11.47;98186.97;2263215;79;20206;-75
2021/05/11 16:58:50;;;;;;;;;;;;;;;44.74;11.53;98183.34;2309041;76;20200;-76
2021/05/11 17:02:06;;;;;;;;;;;;;;;44.58;11.25;98181.71;2263749;79;20268;-75
2021/05/11 17:05:23;;;;;;;;;;;;;;;44.13;11.29;98186.63;2263122;79;20240;-75
2021/05/11 17:08:34;;;;;;;;;;;;;;;43.89;11.59;98183.64;2308815;76;20206;-75
2021/05/11 17:11:51;;;;;;;;;;;;;;;43.60;11.25;98183.19;2263798;79;20228;-75
2021/05/11 17:15:02;;;;;;;;;;;;;;;43.19;11.42;98181.77;2263224;79;20474;-75
2021/05/11 17:18:13;;;;;;;;;;;;;;;42.78;11.56;98180.25;2263373;79;20222;-75
2021/05/11 17:21:25;;;;;;;;;;;;;;;42.31;11.84;98186.84;2260148;79;20214;-75
2021/05/11 17:24:36;;;;;;;;;;;;;;;42.04;12.20;98184.50;2260074;79;20218;-75
2021/05/11 17:27:54;;;;;;;;;;;;;;;41.65;12.17;98181.39;2309198;76;20148;-74
2021/05/11 17:31:05;;;;;;;;;;;;;;;41.21;12.71;98185.73;2308906;76;20128;-75
2021/05/11 17:34:16;;;;;;;;;;;;;;;40.86;12.78;98179.34;2260102;79;20486;-75
2021/05/11 17:37:27;;;;;;;;;;;;;;;40.26;13.05;98182.21;2260093;79;20218;-75
2021/05/11 17:40:37;;;;;;;;;;;;;;;39.41;13.29;98180.92;2260118;79;20214;-75
2021/05/11 17:43:48;;;;;;;;;;;;;;;38.64;13.87;98185.55;2260107;79;20219;-75
2021/05/11 17:47:01;;;;;;;;;;;;;;;37.89;14.34;98183.62;2308983;76;20125;-75
2021/05/11 17:50:18;;;;;;;;;;;;;;;37.13;15.09;98191.84;2263140;79;20515;-75
2021/05/11 17:53:31;;;;;;;;;;;;;;;36.29;15.68;98190.53;2260126;79;20218;-75
2021/05/11 17:56:42;;;;;;;;;;;;;;;34.94;17.17;98190.22;2260067;79;20486;-75
2021/05/11 17:59:59;;;;;;;;;;;;;;;33.58;18.82;98194.28;2263107;79;20255;-75
2021/05/11 18:03:10;;;;;;;;;;;;;;;32.57;19.31;98189.66;2260111;79;20274;-76
2021/05/11 18:06:21;;;;;;;;;;;;;;;31.26;21.21;98186.26;2260077;79;20238;-76
2021/05/11 18:09:35;;;;;;;;;;;;;;;30.03;21.87;98185.91;2263224;79;20486;-76
2021/05/11 18:12:45;;;;;;;;;;;;;;;29.14;23.35;98190.16;2260151;79;20223;-76
2021/05/11 18:15:56;;;;;;;;;;;;;;;28.32;24.13;98195.92;2263199;79;20219;-76
2021/05/11 18:19:06;;;;;;;;;;;;;;;27.67;25.79;98187.69;2263263;79;20255;-77
2021/05/11 18:22:23;;;;;;;;;;;;;;;27.00;26.40;98196.17;2263110;79;20287;-76
2021/05/11 18:25:34;;;;;;;;;;;;;;;26.47;26.99;98206.59;2260097;79;20218;-78
2021/05/11 18:28:44;;;;;;;;;;;;;;;26.01;28.28;98208.33;2260148;79;20482;-76
2021/05/11 18:32:01;;;;;;;;;;;;;;;25.57;28.65;98207.06;2308762;76;20227;-76
2021/05/11 18:35:24;;;;;;;;;;;;;;;25.19;29.87;98210.29;2260029;79;20493;-76
2021/05/11 18:38:33;;;;;;;;;;;;;;;24.84;30.81;98218.41;2260161;79;20258;-76
2021/05/11 18:41:45;;;;;;;;;;;;;;;24.53;30.45;98216.49;2263237;79;20226;-76
2021/05/11 18:45:01;;;;;;;;;;;;;;;24.25;32.29;98224.59;2263175;79;20566;-77
2021/05/11 18:48:12;;;;;;;;;;;;;;;24.03;31.59;98214.44;2260134;79;20234;-76
2021/05/11 18:51:30;;;;;;;;;;;;;;;23.79;32.46;98220.52;2263249;79;20546;-76
2021/05/11 18:54:43;;;;;;;;;;;;;;;23.59;32.39;98223.02;2263247;79;20218;-76
2021/05/11 18:57:59;;;;;;;;;;;;;;;23.35;33.10;98210.85;2266069;79;20172;-77
2021/05/11 19:01:15;;;;;;;;;;;;;;;23.15;33.65;98223.50;2263111;79;20539;-76
2021/05/11 19:04:26;;;;;;;;;;;;;;;23.01;33.09;98218.98;2308901;76;20140;-77
2021/05/11 19:07:43;;;;;;;;;;;;;;;22.83;33.38;98218.89;2263533;79;20264;-76
2021/05/11 19:10:55;;;;;;;;;;;;;;;22.69;33.72;98223.75;2260134;79;20230;-76
2021/05/11 19:14:12;;;;;;;;;;;;;;;22.54;33.83;98232.28;2263147;79;20271;-77
2021/05/11 19:17:23;;;;;;;;;;;;;;;22.38;34.08;98231.44;2260105;79;20099;-77
2021/05/11 19:20:33;;;;;;;;;;;;;;;22.24;34.50;98226.41;2260123;79;20238;-77
2021/05/11 19:23:44;;;;;;;;;;;;;;;22.10;34.79;98229.38;2263276;79;20218;-76
2021/05/11 19:26:54;;;;;;;;;;;;;;;22.02;34.57;98228.11;2260259;79;20124;-76
2021/05/11 19:30:10;;;;;;;;;;;;;;;21.90;34.66;98228.23;2263254;79;20303;-76
2021/05/11 19:33:31;;;;;;;;;;;;;;;21.78;34.77;98231.86;2263179;79;20496;-76
2021/05/11 19:36:46;;;;;;;;;;;;;;;21.67;35.14;98228.28;2263668;79;20248;-77
2021/05/11 19:39:57;;;;;;;;;;;;;;;21.56;34.90;98230.84;2260297;79;20214;-76
2021/05/11 19:43:07;;;;;;;;;;;;;;;21.45;35.70;98229.41;2260161;79;20517;-77
2021/05/11 19:46:25;;;;;;;;;;;;;;;21.38;35.19;98228.46;2263652;79;20228;-76
2021/05/11 19:49:41;;;;;;;;;;;;;;;21.26;35.12;98226.69;2266176;79;20180;-77